sensor_id;sensor_type;location;lat;lon;timestamp;pressure;altitude;pressure_sealevel;temperature;humidity
61537;BME280;48695;53.480;-6.300;2023-05-12T00:00:13;101839.34;;;13.60;70.93
61537;BME280;48695;53.480;-6.300;2023-05-12T00:02:39;101840.25;;;13.58;70.67
61537;BME280;48695;53.480;-6.300;2023-05-12T00:05:04;101845.53;;;13.56;70.92
61537;BME280;48695;53.480;-6.300;2023-05-12T00:07:29;101842.94;;;13.53;70.89
61537;BME280;48695;53.480;-6.300;2023-05-12T00:09:55;101843.03;;;13.50;70.94
61537;BME280;48695;53.480;-6.300;2023-05-12T00:12:20;101850.03;;;13.48;71.05
61537;BME280;48695;53.480;-6.300;2023-05-12T00:14:45;101847.47;;;13.45;70.78
61537;BME280;48695;53.480;-6.300;2023-05-12T00:17:10;101851.88;;;13.43;70.92
61537;BME280;48695;53.480;-6.300;2023-05-12T00:19:37;101851.94;;;13.40;70.99
61537;BME280;48695;53.480;-6.300;2023-05-12T00:22:05;101853.69;;;13.38;70.79
61537;BME280;48695;53.480;-6.300;2023-05-12T00:24:30;101846.78;;;13.34;70.78
61537;BME280;48695;53.480;-6.300;2023-05-12T00:26:56;101853.78;;;13.32;71.00
61537;BME280;48695;53.480;-6.300;2023-05-12T00:29:21;101861.75;;;13.29;70.89
61537;BME280;48695;53.480;-6.300;2023-05-12T00:31:46;101860.94;;;13.23;70.88
61537;BME280;48695;53.480;-6.300;2023-05-12T00:34:11;101863.56;;;13.22;70.59
61537;BME280;48695;53.480;-6.300;2023-05-12T00:36:37;101872.31;;;13.19;70.71
61537;BME280;48695;53.480;-6.300;2023-05-12T00:39:02;101868.00;;;13.15;71.01
61537;BME280;48695;53.480;-6.300;2023-05-12T00:41:28;101869.81;;;13.13;70.58
61537;BME280;48695;53.480;-6.300;2023-05-12T00:43:54;101868.94;;;13.11;70.56
61537;BME280;48695;53.480;-6.300;2023-05-12T00:46:19;101872.50;;;13.09;70.97
61537;BME280;48695;53.480;-6.300;2023-05-12T00:48:44;101877.75;;;13.06;71.23
61537;BME280;48695;53.480;-6.300;2023-05-12T00:51:10;101869.94;;;13.04;70.84
61537;BME280;48695;53.480;-6.300;2023-05-12T00:53:36;101877.81;;;13.01;71.35
61537;BME280;48695;53.480;-6.300;2023-05-12T00:56:01;101879.63;;;12.99;71.01
61537;BME280;48695;53.480;-6.300;2023-05-12T00:58:27;101878.75;;;12.97;71.10
61537;BME280;48695;53.480;-6.300;2023-05-12T01:00:52;101878.81;;;12.94;71.26
61537;BME280;48695;53.480;-6.300;2023-05-12T01:03:18;101880.56;;;12.92;71.54
61537;BME280;48695;53.480;-6.300;2023-05-12T01:05:59;101877.13;;;12.90;71.33
61537;BME280;48695;53.480;-6.300;2023-05-12T01:08:28;101888.50;;;12.87;71.28
61537;BME280;48695;53.480;-6.300;2023-05-12T01:10:53;101884.16;;;12.85;71.60
61537;BME280;48695;53.480;-6.300;2023-05-12T01:13:18;101885.97;;;12.83;71.13
61537;BME280;48695;53.480;-6.300;2023-05-12T01:15:45;101885.09;;;12.81;71.39
61537;BME280;48695;53.480;-6.300;2023-05-12T01:18:10;101886.88;;;12.79;71.58
61537;BME280;48695;53.480;-6.300;2023-05-12T01:20:36;101887.81;;;12.75;71.43
61537;BME280;48695;53.480;-6.300;2023-05-12T01:23:02;101886.94;;;12.74;71.27
61537;BME280;48695;53.480;-6.300;2023-05-12T01:25:30;101887.81;;;12.71;71.52
61537;BME280;48695;53.480;-6.300;2023-05-12T01:27:55;101894.84;;;12.69;71.64
61537;BME280;48695;53.480;-6.300;2023-05-12T01:30:21;101894.00;;;12.67;71.65
61537;BME280;48695;53.480;-6.300;2023-05-12T01:32:47;101891.41;;;12.64;71.48
61537;BME280;48695;53.480;-6.300;2023-05-12T01:35:12;101893.22;;;12.62;71.43
61537;BME280;48695;53.480;-6.300;2023-05-12T01:37:38;101898.47;;;12.59;71.39
61537;BME280;48695;53.480;-6.300;2023-05-12T01:40:03;101892.38;;;12.57;71.34
61537;BME280;48695;53.480;-6.300;2023-05-12T01:42:29;101902.00;;;12.55;71.66
61537;BME280;48695;53.480;-6.300;2023-05-12T01:44:54;101898.53;;;12.53;71.85
61537;BME280;48695;53.480;-6.300;2023-05-12T01:47:19;101895.06;;;12.51;71.53
61537;BME280;48695;53.480;-6.300;2023-05-12T01:49:45;101904.69;;;12.49;71.56
61537;BME280;48695;53.480;-6.300;2023-05-12T01:52:10;101909.09;;;12.47;72.01
61537;BME280;48695;53.480;-6.300;2023-05-12T01:54:36;101907.34;;;12.46;71.62
61537;BME280;48695;53.480;-6.300;2023-05-12T01:57:01;101903.03;;;12.43;72.11
61537;BME280;48695;53.480;-6.300;2023-05-12T01:59:26;101910.03;;;12.40;72.08
61537;BME280;48695;53.480;-6.300;2023-05-12T02:01:51;101913.56;;;12.39;72.07
61537;BME280;48695;53.480;-6.300;2023-05-12T02:04:17;101915.34;;;12.37;71.92
61537;BME280;48695;53.480;-6.300;2023-05-12T02:06:42;101914.44;;;12.36;72.04
61537;BME280;48695;53.480;-6.300;2023-05-12T02:09:07;101923.19;;;12.35;72.12
61537;BME280;48695;53.480;-6.300;2023-05-12T02:11:32;101931.97;;;12.33;71.81
61537;BME280;48695;53.480;-6.300;2023-05-12T02:13:58;101925.84;;;12.31;72.16
61537;BME280;48695;53.480;-6.300;2023-05-12T02:16:23;101929.38;;;12.28;72.12
61537;BME280;48695;53.480;-6.300;2023-05-12T02:18:48;101935.50;;;12.26;72.23
61537;BME280;48695;53.480;-6.300;2023-05-12T02:21:14;101941.66;;;12.23;72.10
61537;BME280;48695;53.480;-6.300;2023-05-12T02:23:39;101939.91;;;12.22;72.13
61537;BME280;48695;53.480;-6.300;2023-05-12T02:26:04;101946.91;;;12.20;72.15
61537;BME280;48695;53.480;-6.300;2023-05-12T02:28:29;101946.06;;;12.16;72.44
61537;BME280;48695;53.480;-6.300;2023-05-12T02:30:55;101942.59;;;12.14;71.96
61537;BME280;48695;53.480;-6.300;2023-05-12T02:33:20;101944.38;;;12.12;70.58
61537;BME280;48695;53.480;-6.300;2023-05-12T02:35:48;101945.25;;;12.10;71.22
61537;BME280;48695;53.480;-6.300;2023-05-12T02:38:14;101947.91;;;12.07;71.18
61537;BME280;48695;53.480;-6.300;2023-05-12T02:40:39;101951.41;;;12.04;71.52
61537;BME280;48695;53.480;-6.300;2023-05-12T02:43:05;101957.56;;;12.02;71.88
61537;BME280;48695;53.480;-6.300;2023-05-12T02:45:30;101953.22;;;11.99;72.39
61537;BME280;48695;53.480;-6.300;2023-05-12T02:47:55;101951.47;;;11.98;72.41
61537;BME280;48695;53.480;-6.300;2023-05-12T02:50:21;101963.69;;;11.96;72.49
61537;BME280;48695;53.480;-6.300;2023-05-12T02:52:47;101965.44;;;11.95;72.35
61537;BME280;48695;53.480;-6.300;2023-05-12T02:55:12;101962.84;;;11.94;72.64
61537;BME280;48695;53.480;-6.300;2023-05-12T02:57:37;101964.63;;;11.92;72.28
61537;BME280;48695;53.480;-6.300;2023-05-12T03:00:03;101968.13;;;11.89;72.50
61537;BME280;48695;53.480;-6.300;2023-05-12T03:02:30;101972.50;;;11.89;72.45
61537;BME280;48695;53.480;-6.300;2023-05-12T03:04:55;101974.25;;;11.87;72.55
61537;BME280;48695;53.480;-6.300;2023-05-12T03:07:20;101965.53;;;11.85;72.91
61537;BME280;48695;53.480;-6.300;2023-05-12T03:09:46;101970.78;;;11.83;72.38
61537;BME280;48695;53.480;-6.300;2023-05-12T03:12:12;101969.91;;;11.81;72.46
61537;BME280;48695;53.480;-6.300;2023-05-12T03:14:37;101969.91;;;11.78;72.09
61537;BME280;48695;53.480;-6.300;2023-05-12T03:17:02;101963.84;;;11.75;72.11
61537;BME280;48695;53.480;-6.300;2023-05-12T03:19:27;101965.59;;;11.73;72.32
61537;BME280;48695;53.480;-6.300;2023-05-12T03:21:53;101969.97;;;11.70;72.64
61537;BME280;48695;53.480;-6.300;2023-05-12T03:24:18;101969.97;;;11.69;72.44
61537;BME280;48695;53.480;-6.300;2023-05-12T03:26:43;101963.91;;;11.65;72.76
61537;BME280;48695;53.480;-6.300;2023-05-12T03:29:08;101964.78;;;11.64;72.84
61537;BME280;48695;53.480;-6.300;2023-05-12T03:31:34;101971.78;;;11.62;73.04
61537;BME280;48695;53.480;-6.300;2023-05-12T03:33:59;101974.41;;;11.59;72.96
61537;BME280;48695;53.480;-6.300;2023-05-12T03:36:24;101969.22;;;11.56;72.68
61537;BME280;48695;53.480;-6.300;2023-05-12T03:38:50;101967.47;;;11.54;72.74
61537;BME280;48695;53.480;-6.300;2023-05-12T03:41:15;101965.75;;;11.51;72.77
61537;BME280;48695;53.480;-6.300;2023-05-12T03:43:40;101977.97;;;11.49;73.21
61537;BME280;48695;53.480;-6.300;2023-05-12T03:46:06;101979.72;;;11.47;72.98
61537;BME280;48695;53.480;-6.300;2023-05-12T03:48:31;101976.22;;;11.45;72.92
61537;BME280;48695;53.480;-6.300;2023-05-12T03:50:56;101983.22;;;11.43;72.87
61537;BME280;48695;53.480;-6.300;2023-05-12T03:53:22;101983.25;;;11.41;73.21
61537;BME280;48695;53.480;-6.300;2023-05-12T03:55:47;101983.25;;;11.40;73.18
61537;BME280;48695;53.480;-6.300;2023-05-12T03:58:12;101989.34;;;11.39;73.27
61537;BME280;48695;53.480;-6.300;2023-05-12T04:00:37;101988.50;;;11.37;73.21
61537;BME280;48695;53.480;-6.300;2023-05-12T04:03:03;101989.38;;;11.36;73.20
61537;BME280;48695;53.480;-6.300;2023-05-12T04:05:28;101988.50;;;11.34;73.43
61537;BME280;48695;53.480;-6.300;2023-05-12T04:07:53;101993.75;;;11.32;73.28
61537;BME280;48695;53.480;-6.300;2023-05-12T04:10:18;101999.88;;;11.31;73.05
61537;BME280;48695;53.480;-6.300;2023-05-12T04:12:44;102003.34;;;11.30;72.78
61537;BME280;48695;53.480;-6.300;2023-05-12T04:15:09;102001.59;;;11.29;73.15
61537;BME280;48695;53.480;-6.300;2023-05-12T04:17:35;102012.97;;;11.27;72.77
61537;BME280;48695;53.480;-6.300;2023-05-12T04:20:00;102018.19;;;11.27;72.75
61537;BME280;48695;53.480;-6.300;2023-05-12T04:22:25;102014.69;;;11.28;72.88
61537;BME280;48695;53.480;-6.300;2023-05-12T04:24:50;102019.06;;;11.26;73.15
61537;BME280;48695;53.480;-6.300;2023-05-12T04:27:16;102014.69;;;11.25;73.22
61537;BME280;48695;53.480;-6.300;2023-05-12T04:29:41;102014.72;;;11.23;73.48
61537;BME280;48695;53.480;-6.300;2023-05-12T04:32:06;102011.22;;;11.23;73.48
61537;BME280;48695;53.480;-6.300;2023-05-12T04:34:32;102018.22;;;11.21;73.73
61537;BME280;48695;53.480;-6.300;2023-05-12T04:36:57;102026.06;;;11.21;73.55
61537;BME280;48695;53.480;-6.300;2023-05-12T04:39:22;102007.81;;;11.08;73.59
61537;BME280;48695;53.480;-6.300;2023-05-12T04:41:47;102036.53;;;11.16;73.67
61537;BME280;48695;53.480;-6.300;2023-05-12T04:44:13;102025.22;;;11.15;73.26
61537;BME280;48695;53.480;-6.300;2023-05-12T04:46:38;102034.78;;;11.13;73.25
61537;BME280;48695;53.480;-6.300;2023-05-12T04:49:03;102028.72;;;11.11;73.53
61537;BME280;48695;53.480;-6.300;2023-05-12T04:51:28;102039.16;;;11.11;73.53
61537;BME280;48695;53.480;-6.300;2023-05-12T04:53:54;102040.91;;;11.09;73.33
61537;BME280;48695;53.480;-6.300;2023-05-12T04:56:19;102040.03;;;11.09;73.56
61537;BME280;48695;53.480;-6.300;2023-05-12T04:58:46;102036.56;;;11.08;73.92
61537;BME280;48695;53.480;-6.300;2023-05-12T05:01:11;102037.44;;;11.07;73.98
61537;BME280;48695;53.480;-6.300;2023-05-12T05:03:37;102040.06;;;11.06;73.78
61537;BME280;48695;53.480;-6.300;2023-05-12T05:06:03;102050.53;;;11.06;73.53
61537;BME280;48695;53.480;-6.300;2023-05-12T05:08:28;102055.75;;;11.06;73.49
61537;BME280;48695;53.480;-6.300;2023-05-12T05:10:53;102052.28;;;11.05;73.95
61537;BME280;48695;53.480;-6.300;2023-05-12T05:13:19;102051.38;;;11.06;73.77
61537;BME280;48695;53.480;-6.300;2023-05-12T05:15:50;102057.47;;;11.07;74.09
61537;BME280;48695;53.480;-6.300;2023-05-12T05:18:16;102064.47;;;11.06;73.87
61537;BME280;48695;53.480;-6.300;2023-05-12T05:20:42;102066.19;;;11.09;74.05
61537;BME280;48695;53.480;-6.300;2023-05-12T05:23:07;102076.63;;;11.09;74.02
61537;BME280;48695;53.480;-6.300;2023-05-12T05:25:33;102081.88;;;11.10;74.33
61537;BME280;48695;53.480;-6.300;2023-05-12T05:27:58;102081.88;;;11.12;74.29
61537;BME280;48695;53.480;-6.300;2023-05-12T05:30:23;102091.44;;;11.14;74.35
61537;BME280;48695;53.480;-6.300;2023-05-12T05:32:48;102087.09;;;11.16;74.28
61537;BME280;48695;53.480;-6.300;2023-05-12T05:35:14;102091.44;;;11.17;74.39
61537;BME280;48695;53.480;-6.300;2023-05-12T05:37:39;102099.25;;;11.19;74.32
61537;BME280;48695;53.480;-6.300;2023-05-12T05:40:04;102103.63;;;11.22;74.40
61537;BME280;48695;53.480;-6.300;2023-05-12T05:42:30;102107.97;;;11.24;74.43
61537;BME280;48695;53.480;-6.300;2023-05-12T05:44:55;102112.34;;;11.27;74.33
61537;BME280;48695;53.480;-6.300;2023-05-12T05:47:20;102060.13;;;10.96;74.68
61537;BME280;48695;53.480;-6.300;2023-05-12T05:49:46;102125.38;;;11.33;74.45
61537;BME280;48695;53.480;-6.300;2023-05-12T05:52:11;102128.88;;;11.36;74.74
61537;BME280;48695;53.480;-6.300;2023-05-12T05:54:36;102133.19;;;11.39;74.81
61537;BME280;48695;53.480;-6.300;2023-05-12T05:57:01;102139.31;;;11.42;74.51
61537;BME280;48695;53.480;-6.300;2023-05-12T05:59:27;102142.78;;;11.48;74.57
61537;BME280;48695;53.480;-6.300;2023-05-12T06:01:52;102148.88;;;11.51;74.97
61537;BME280;48695;53.480;-6.300;2023-05-12T06:04:17;102150.59;;;11.55;74.87
61537;BME280;48695;53.480;-6.300;2023-05-12T06:06:43;102147.09;;;11.59;75.08
61537;BME280;48695;53.480;-6.300;2023-05-12T06:09:08;102148.81;;;11.63;74.88
61537;BME280;48695;53.480;-6.300;2023-05-12T06:11:36;102158.41;;;11.67;75.28
61537;BME280;48695;53.480;-6.300;2023-05-12T06:14:01;102164.50;;;11.73;74.90
61537;BME280;48695;53.480;-6.300;2023-05-12T06:16:26;102162.72;;;11.78;75.28
61537;BME280;48695;53.480;-6.300;2023-05-12T06:18:53;102164.50;;;11.82;75.36
61537;BME280;48695;53.480;-6.300;2023-05-12T06:21:18;102161.84;;;11.86;75.39
61537;BME280;48695;53.480;-6.300;2023-05-12T06:23:43;102164.41;;;11.91;75.51
61537;BME280;48695;53.480;-6.300;2023-05-12T06:26:08;102158.31;;;11.97;75.04
61537;BME280;48695;53.480;-6.300;2023-05-12T06:28:34;102164.38;;;12.00;75.54
61537;BME280;48695;53.480;-6.300;2023-05-12T06:30:59;102173.09;;;12.05;75.48
61537;BME280;48695;53.480;-6.300;2023-05-12T06:33:24;102177.41;;;12.11;75.26
61537;BME280;48695;53.480;-6.300;2023-05-12T06:35:50;102184.34;;;12.16;75.30
61537;BME280;48695;53.480;-6.300;2023-05-12T06:38:15;102180.00;;;12.22;75.29
61537;BME280;48695;53.480;-6.300;2023-05-12T06:40:40;102175.59;;;12.27;75.36
61537;BME280;48695;53.480;-6.300;2023-05-12T06:43:05;102183.41;;;12.33;75.80
61537;BME280;48695;53.480;-6.300;2023-05-12T06:45:31;102176.41;;;12.38;75.44
61537;BME280;48695;53.480;-6.300;2023-05-12T06:47:56;102182.47;;;12.44;75.49
61537;BME280;48695;53.480;-6.300;2023-05-12T06:50:22;102185.06;;;12.49;75.84
61537;BME280;48695;53.480;-6.300;2023-05-12T06:52:47;102192.84;;;12.57;75.60
61537;BME280;48695;53.480;-6.300;2023-05-12T06:55:12;102191.06;;;12.62;75.56
61537;BME280;48695;53.480;-6.300;2023-05-12T06:57:37;102188.41;;;12.66;75.66
61537;BME280;48695;53.480;-6.300;2023-05-12T07:00:03;102192.75;;;12.73;75.75
61537;BME280;48695;53.480;-6.300;2023-05-12T07:02:28;102133.56;;;12.43;75.92
61537;BME280;48695;53.480;-6.300;2023-05-12T07:04:54;102191.75;;;12.87;76.05
61537;BME280;48695;53.480;-6.300;2023-05-12T07:07:20;102196.97;;;12.93;75.83
61537;BME280;48695;53.480;-6.300;2023-05-12T07:09:45;102201.25;;;13.00;75.69
61537;BME280;48695;53.480;-6.300;2023-05-12T07:12:10;102192.47;;;13.06;75.88
61537;BME280;48695;53.480;-6.300;2023-05-12T07:14:36;102199.41;;;13.13;76.14
61537;BME280;48695;53.480;-6.300;2023-05-12T07:17:01;102198.47;;;13.18;75.84
61537;BME280;48695;53.480;-6.300;2023-05-12T07:19:27;102200.16;;;13.26;76.01
61537;BME280;48695;53.480;-6.300;2023-05-12T07:21:52;102200.13;;;13.33;75.80
61537;BME280;48695;53.480;-6.300;2023-05-12T07:24:17;102203.53;;;13.40;76.21
61537;BME280;48695;53.480;-6.300;2023-05-12T07:26:43;102199.94;;;13.47;76.18
61537;BME280;48695;53.480;-6.300;2023-05-12T07:29:08;102203.41;;;13.54;76.25
61537;BME280;48695;53.480;-6.300;2023-05-12T07:31:35;102205.94;;;13.60;76.21
61537;BME280;48695;53.480;-6.300;2023-05-12T07:34:00;102202.34;;;13.67;76.14
61537;BME280;48695;53.480;-6.300;2023-05-12T07:36:26;102204.91;;;13.74;75.98
61537;BME280;48695;53.480;-6.300;2023-05-12T07:38:52;102203.03;;;13.83;76.18
61537;BME280;48695;53.480;-6.300;2023-05-12T07:41:17;102205.56;;;13.92;75.98
61537;BME280;48695;53.480;-6.300;2023-05-12T07:43:42;102208.97;;;14.00;76.35
61537;BME280;48695;53.480;-6.300;2023-05-12T07:46:08;102218.47;;;14.10;76.20
61537;BME280;48695;53.480;-6.300;2023-05-12T07:48:33;102225.34;;;14.20;75.99
61537;BME280;48695;53.480;-6.300;2023-05-12T07:51:03;102221.69;;;14.31;75.86
61537;BME280;48695;53.480;-6.300;2023-05-12T07:53:29;102223.31;;;14.41;75.80
61537;BME280;48695;53.480;-6.300;2023-05-12T07:55:54;102232.81;;;14.49;75.74
61537;BME280;48695;53.480;-6.300;2023-05-12T07:58:19;102236.19;;;14.59;75.72
61537;BME280;48695;53.480;-6.300;2023-05-12T08:00:45;102231.69;;;14.67;75.95
61537;BME280;48695;53.480;-6.300;2023-05-12T08:03:10;102235.03;;;14.78;75.82
61537;BME280;48695;53.480;-6.300;2023-05-12T08:05:35;102243.66;;;14.87;75.94
61537;BME280;48695;53.480;-6.300;2023-05-12T08:08:00;102243.53;;;14.96;75.45
61537;BME280;48695;53.480;-6.300;2023-05-12T08:10:26;102253.00;;;15.04;75.75
61537;BME280;48695;53.480;-6.300;2023-05-12T08:12:54;102250.25;;;15.12;75.19
61537;BME280;48695;53.480;-6.300;2023-05-12T08:15:19;102252.81;;;15.17;75.47
61537;BME280;48695;53.480;-6.300;2023-05-12T08:17:44;102257.06;;;15.24;75.06
61537;BME280;48695;53.480;-6.300;2023-05-12T08:20:10;102252.59;;;15.29;75.44
61537;BME280;48695;53.480;-6.300;2023-05-12T08:22:35;102251.63;;;15.35;75.24
61537;BME280;48695;53.480;-6.300;2023-05-12T08:25:00;102261.19;;;15.39;74.86
61537;BME280;48695;53.480;-6.300;2023-05-12T08:27:25;102262.00;;;15.44;74.99
61537;BME280;48695;53.480;-6.300;2023-05-12T08:29:51;102265.41;;;15.49;75.15
61537;BME280;48695;53.480;-6.300;2023-05-12T08:32:16;102265.28;;;15.55;75.13
61537;BME280;48695;53.480;-6.300;2023-05-12T08:34:41;102269.56;;;15.61;75.17
61537;BME280;48695;53.480;-6.300;2023-05-12T08:37:07;102263.38;;;15.66;74.84
61537;BME280;48695;53.480;-6.300;2023-05-12T08:39:32;102268.53;;;15.72;75.28
61537;BME280;48695;53.480;-6.300;2023-05-12T08:42:06;102268.41;;;15.78;74.88
61537;BME280;48695;53.480;-6.300;2023-05-12T08:44:37;102267.41;;;15.84;74.98
61537;BME280;48695;53.480;-6.300;2023-05-12T08:47:03;102279.59;;;15.90;75.09
61537;BME280;48695;53.480;-6.300;2023-05-12T08:49:29;102282.09;;;15.96;75.09
61537;BME280;48695;53.480;-6.300;2023-05-12T08:51:55;102282.88;;;16.01;74.92
61537;BME280;48695;53.480;-6.300;2023-05-12T08:54:20;102285.41;;;16.07;74.75
61537;BME280;48695;53.480;-6.300;2023-05-12T08:56:46;102284.41;;;16.13;75.00
61537;BME280;48695;53.480;-6.300;2023-05-12T08:59:12;102283.41;;;16.18;74.90
61537;BME280;48695;53.480;-6.300;2023-05-12T09:01:37;102284.16;;;16.25;74.62
61537;BME280;48695;53.480;-6.300;2023-05-12T09:04:06;102291.91;;;16.32;74.38
61537;BME280;48695;53.480;-6.300;2023-05-12T09:06:32;102294.38;;;16.40;74.42
61537;BME280;48695;53.480;-6.300;2023-05-12T09:08:57;102301.22;;;16.47;74.23
61537;BME280;48695;53.480;-6.300;2023-05-12T09:11:23;102301.09;;;16.55;74.37
61537;BME280;48695;53.480;-6.300;2023-05-12T09:16:17;102303.38;;;16.70;74.26
61537;BME280;48695;53.480;-6.300;2023-05-12T09:18:50;102305.00;;;16.77;74.01
61537;BME280;48695;53.480;-6.300;2023-05-12T09:21:16;102305.75;;;16.82;74.05
61537;BME280;48695;53.480;-6.300;2023-05-12T09:23:50;102307.44;;;16.86;74.04
61537;BME280;48695;53.480;-6.300;2023-05-12T09:26:16;102312.59;;;16.91;73.89
61537;BME280;48695;53.480;-6.300;2023-05-12T09:28:41;102313.41;;;16.95;74.09
61537;BME280;48695;53.480;-6.300;2023-05-12T09:31:15;102313.31;;;16.98;73.74
61537;BME280;48695;53.480;-6.300;2023-05-12T09:33:40;102315.78;;;17.05;73.56
61537;BME280;48695;53.480;-6.300;2023-05-12T09:36:05;102311.31;;;17.09;73.47
61537;BME280;48695;53.480;-6.300;2023-05-12T09:38:31;102312.06;;;17.14;73.77
61537;BME280;48695;53.480;-6.300;2023-05-12T09:40:56;102318.13;;;17.18;73.79
61537;BME280;48695;53.480;-6.300;2023-05-12T09:43:21;102328.56;;;17.22;73.50
61537;BME280;48695;53.480;-6.300;2023-05-12T09:45:47;102335.50;;;17.26;73.48
61537;BME280;48695;53.480;-6.300;2023-05-12T09:48:14;102295.38;;;17.12;73.49
61537;BME280;48695;53.480;-6.300;2023-05-12T09:53:08;102330.81;;;17.39;73.55
61537;BME280;48695;53.480;-6.300;2023-05-12T09:55:34;102323.66;;;17.43;73.41
61537;BME280;48695;53.480;-6.300;2023-05-12T09:58:00;102331.50;;;17.46;73.07
61537;BME280;48695;53.480;-6.300;2023-05-12T10:00:26;102327.03;;;17.49;73.53
61537;BME280;48695;53.480;-6.300;2023-05-12T10:02:51;102329.56;;;17.54;73.21
61537;BME280;48695;53.480;-6.300;2023-05-12T10:05:20;102329.47;;;17.57;73.21
61537;BME280;48695;53.480;-6.300;2023-05-12T10:07:47;102325.84;;;17.61;72.97
61537;BME280;48695;53.480;-6.300;2023-05-12T10:10:13;102326.59;;;17.66;73.23
61537;BME280;48695;53.480;-6.300;2023-05-12T10:12:40;102334.34;;;17.72;73.20
61537;BME280;48695;53.480;-6.300;2023-05-12T10:15:06;102330.75;;;17.76;73.36
61537;BME280;48695;53.480;-6.300;2023-05-12T10:17:32;102330.63;;;17.81;73.24
61537;BME280;48695;53.480;-6.300;2023-05-12T10:19:59;102332.28;;;17.85;72.81
61537;BME280;48695;53.480;-6.300;2023-05-12T10:22:25;102335.69;;;17.88;73.00
61537;BME280;48695;53.480;-6.300;2023-05-12T10:24:52;102339.06;;;17.94;72.94
61537;BME280;48695;53.480;-6.300;2023-05-12T10:27:18;102327.47;;;17.99;72.96
61537;BME280;48695;53.480;-6.300;2023-05-12T10:29:44;102329.91;;;18.07;72.83
61537;BME280;48695;53.480;-6.300;2023-05-12T10:32:10;102324.38;;;18.16;72.89
61537;BME280;48695;53.480;-6.300;2023-05-12T10:34:36;102327.56;;;18.27;73.24
61537;BME280;48695;53.480;-6.300;2023-05-12T10:37:05;102322.69;;;18.43;72.81
61537;BME280;48695;53.480;-6.300;2023-05-12T10:39:33;102323.00;;;18.62;72.98
61537;BME280;48695;53.480;-6.300;2023-05-12T10:42:19;102319.72;;;18.83;73.10
61537;BME280;48695;53.480;-6.300;2023-05-12T10:44:49;102326.69;;;19.14;73.14
61537;BME280;48695;53.480;-6.300;2023-05-12T10:47:15;102329.16;;;19.47;72.85
61537;BME280;48695;53.480;-6.300;2023-05-12T10:49:40;102331.63;;;19.78;72.58
61537;BME280;48695;53.480;-6.300;2023-05-12T10:52:06;102327.97;;;20.05;71.86
61537;BME280;48695;53.480;-6.300;2023-05-12T10:54:41;102337.75;;;20.28;71.65
61537;BME280;48695;53.480;-6.300;2023-05-12T10:57:15;102341.47;;;20.47;71.14
61537;BME280;48695;53.480;-6.300;2023-05-12T10:59:50;102338.19;;;20.64;71.03
61537;BME280;48695;53.480;-6.300;2023-05-12T11:02:17;102329.44;;;20.84;70.79
61537;BME280;48695;53.480;-6.300;2023-05-12T11:04:50;102333.88;;;21.06;70.52
61537;BME280;48695;53.480;-6.300;2023-05-12T11:07:23;102332.97;;;21.27;70.13
61537;BME280;48695;53.480;-6.300;2023-05-12T11:09:52;102333.13;;;21.46;70.05
61537;BME280;48695;53.480;-6.300;2023-05-12T11:12:18;102335.03;;;21.63;69.82
61537;BME280;48695;53.480;-6.300;2023-05-12T11:14:44;102329.91;;;21.79;70.03
61537;BME280;48695;53.480;-6.300;2023-05-12T11:17:10;102330.91;;;21.96;69.58
61537;BME280;48695;53.480;-6.300;2023-05-12T11:22:07;102325.47;;;22.58;69.37
61537;BME280;48695;53.480;-6.300;2023-05-12T11:24:33;102328.84;;;22.99;68.79
61537;BME280;48695;53.480;-6.300;2023-05-12T11:26:58;102334.00;;;23.38;68.64
61537;BME280;48695;53.480;-6.300;2023-05-12T11:29:24;102335.56;;;23.77;68.48
61537;BME280;48695;53.480;-6.300;2023-05-12T11:31:49;102349.47;;;24.17;67.99
61537;BME280;48695;53.480;-6.300;2023-05-12T11:34:19;102343.03;;;24.54;66.94
61537;BME280;48695;53.480;-6.300;2023-05-12T11:36:44;102337.59;;;24.87;67.68
61537;BME280;48695;53.480;-6.300;2023-05-12T11:39:17;102340.44;;;25.16;66.54
61537;BME280;48695;53.480;-6.300;2023-05-12T11:41:42;102338.81;;;25.43;65.82
61537;BME280;48695;53.480;-6.300;2023-05-12T11:44:22;102338.28;;;25.67;65.12
61537;BME280;48695;53.480;-6.300;2023-05-12T11:46:57;102345.81;;;25.90;64.88
61537;BME280;48695;53.480;-6.300;2023-05-12T11:49:23;102351.56;;;26.12;64.76
61537;BME280;48695;53.480;-6.300;2023-05-12T11:51:50;102349.53;;;26.30;64.28
61537;BME280;48695;53.480;-6.300;2023-05-12T11:54:15;102351.38;;;26.44;63.38
61537;BME280;48695;53.480;-6.300;2023-05-12T11:56:46;102351.00;;;26.50;62.77
61537;BME280;48695;53.480;-6.300;2023-05-12T11:59:11;102346.72;;;26.48;62.93
61537;BME280;48695;53.480;-6.300;2023-05-12T12:01:42;102345.28;;;26.42;62.69
61537;BME280;48695;53.480;-6.300;2023-05-12T12:04:08;102345.81;;;26.33;62.84
61537;BME280;48695;53.480;-6.300;2023-05-12T12:06:41;102361.50;;;26.25;63.14
61537;BME280;48695;53.480;-6.300;2023-05-12T12:09:06;102354.06;;;26.16;62.72
61537;BME280;48695;53.480;-6.300;2023-05-12T12:11:32;102354.44;;;26.09;63.70
61537;BME280;48695;53.480;-6.300;2023-05-12T12:13:58;102360.00;;;26.06;63.50
61537;BME280;48695;53.480;-6.300;2023-05-12T12:16:28;102360.00;;;26.06;63.86
61537;BME280;48695;53.480;-6.300;2023-05-12T12:18:54;102375.66;;;26.12;64.14
61537;BME280;48695;53.480;-6.300;2023-05-12T12:21:20;102364.47;;;26.20;63.96
61537;BME280;48695;53.480;-6.300;2023-05-12T12:23:48;102349.47;;;26.32;64.09
61537;BME280;48695;53.480;-6.300;2023-05-12T12:26:13;102350.81;;;26.53;64.08
61537;BME280;48695;53.480;-6.300;2023-05-12T12:28:46;102358.69;;;26.83;64.41
61537;BME280;48695;53.480;-6.300;2023-05-12T12:31:14;102355.31;;;27.21;64.46
61537;BME280;48695;53.480;-6.300;2023-05-12T12:33:40;102353.72;;;27.58;63.88
61537;BME280;48695;53.480;-6.300;2023-05-12T12:36:05;102353.13;;;27.93;63.60
61537;BME280;48695;53.480;-6.300;2023-05-12T12:38:30;102359.75;;;28.26;63.87
61537;BME280;48695;53.480;-6.300;2023-05-12T12:40:56;102311.59;;;28.23;62.68